Time;durP1;ratioP1;P1;durP2;ratioP2;P2;SDS_P1;SDS_P2;PMS_P1;PMS_P2;Temp;Humidity;BMP_temperature;BMP_pressure;BME280_temperature;BME280_humidity;BME280_pressure;Samples;Min_cycle;Max_cycle;Signal;HPM_P1;HPM_P2
2023/04/18 00:00:22;;;;;;;14.53;7.30;;;7.10;99.90;;;;;;5084887;28;20202;-77
2023/04/18 00:02:50;;;;;;;13.70;6.93;;;7.00;99.90;;;;;;5091650;28;20205;-77
2023/04/18 00:05:17;;;;;;;13.47;6.77;;;7.00;99.90;;;;;;5090940;28;20222;-77
2023/04/18 00:07:46;;;;;;;14.47;7.20;;;7.00;99.90;;;;;;5082802;28;20206;-77
2023/04/18 00:10:13;;;;;;;12.33;6.27;;;6.90;99.90;;;;;;5087485;28;20252;-77
2023/04/18 00:12:41;;;;;;;12.23;7.47;;;6.70;99.90;;;;;;5082322;28;20214;-77
2023/04/18 00:15:09;;;;;;;13.80;7.80;;;6.70;99.90;;;;;;5097689;28;20217;-77
2023/04/18 00:17:38;;;;;;;10.23;5.73;;;6.60;99.90;;;;;;5100323;28;20578;-78
2023/04/18 00:20:07;;;;;;;12.60;7.47;;;6.60;99.90;;;;;;5083377;28;20194;-78
2023/04/18 00:22:35;;;;;;;13.87;7.87;;;6.60;99.90;;;;;;5082443;28;20210;-78
2023/04/18 00:25:03;;;;;;;13.67;7.20;;;6.70;99.90;;;;;;5095503;28;20322;-76
2023/04/18 00:27:30;;;;;;;14.67;8.43;;;6.50;99.90;;;;;;5089546;28;20285;-76
2023/04/18 00:29:57;;;;;;;15.00;8.30;;;6.50;99.90;;;;;;5092611;28;20288;-77
2023/04/18 00:32:23;;;;;;;15.13;7.97;;;6.50;99.90;;;;;;5099010;28;20581;-77
2023/04/18 00:34:50;;;;;;;11.43;6.40;;;6.60;99.90;;;;;;5091242;28;20710;-76
2023/04/18 00:37:17;;;;;;;14.83;8.07;;;6.40;99.90;;;;;;5079129;28;20194;-77
2023/04/18 00:39:43;;;;;;;14.27;8.00;;;6.40;99.90;;;;;;5077988;28;20217;-78
2023/04/18 00:42:11;;;;;;;13.67;7.50;;;6.50;99.90;;;;;;5081069;28;20651;-76
2023/04/18 00:44:38;;;;;;;12.23;7.10;;;6.50;99.90;;;;;;5089248;28;20589;-76
2023/04/18 00:47:05;;;;;;;14.23;7.60;;;6.40;99.90;;;;;;5085013;28;20676;-78
2023/04/18 00:49:32;;;;;;;16.00;7.10;;;6.40;99.90;;;;;;5082114;28;20643;-77
2023/04/18 00:52:00;;;;;;;14.37;7.80;;;6.50;99.90;;;;;;5091169;28;20218;-79
2023/04/18 00:54:27;;;;;;;15.63;8.07;;;6.40;99.90;;;;;;5075719;28;20320;-78
2023/04/18 00:56:53;;;;;;;15.13;8.47;;;6.40;99.90;;;;;;5077669;28;20202;-77
2023/04/18 00:59:22;;;;;;;15.77;8.90;;;6.50;99.90;;;;;;5085302;28;20204;-78
2023/04/18 01:01:49;;;;;;;15.20;8.20;;;6.50;99.90;;;;;;5091785;28;20200;-78
2023/04/18 01:04:15;;;;;;;14.77;8.13;;;6.50;99.90;;;;;;5095672;28;20232;-78
2023/04/18 01:06:44;;;;;;;16.33;7.90;;;6.50;99.90;;;;;;5080583;28;20197;-78
2023/04/18 01:09:11;;;;;;;15.00;7.87;;;6.50;99.90;;;;;;5096163;28;20720;-77
2023/04/18 01:11:38;;;;;;;14.70;8.63;;;6.40;99.90;;;;;;5096731;28;20256;-77
2023/04/18 01:14:06;;;;;;;16.50;8.33;;;6.40;99.90;;;;;;5097083;28;20205;-78
2023/04/18 01:16:35;;;;;;;16.33;10.00;;;6.40;99.90;;;;;;5097867;28;20281;-78
2023/04/18 01:19:03;;;;;;;18.03;10.67;;;6.40;99.90;;;;;;5094709;28;20669;-76
2023/04/18 01:21:32;;;;;;;16.00;8.10;;;6.40;99.90;;;;;;5083289;28;20194;-77
2023/04/18 01:24:03;;;;;;;19.07;8.80;;;6.40;99.90;;;;;;5080670;28;20233;-78
2023/04/18 01:26:31;;;;;;;15.67;7.23;;;6.40;99.90;;;;;;5094088;28;20205;-77
2023/04/18 01:28:57;;;;;;;16.70;8.37;;;6.40;99.90;;;;;;5081592;28;20197;-78
2023/04/18 01:31:24;;;;;;;17.70;9.30;;;6.40;99.90;;;;;;5095501;28;20229;-77
2023/04/18 01:33:51;;;;;;;16.27;9.73;;;6.40;99.90;;;;;;5076458;28;20206;-77
2023/04/18 01:36:18;;;;;;;18.80;9.53;;;6.40;99.90;;;;;;5076870;28;20225;-78
2023/04/18 01:38:44;;;;;;;17.80;8.50;;;6.60;99.90;;;;;;5088537;28;20193;-78
2023/04/18 01:41:11;;;;;;;19.23;9.60;;;6.40;99.90;;;;;;5092518;28;20598;-77
2023/04/18 01:43:39;;;;;;;18.10;9.53;;;6.40;99.90;;;;;;5094430;28;20200;-77
2023/04/18 01:46:06;;;;;;;18.83;10.57;;;6.40;99.90;;;;;;5085987;28;20218;-77
2023/04/18 01:48:33;;;;;;;18.03;10.60;;;6.40;99.90;;;;;;5094167;28;20208;-76
2023/04/18 01:50:59;;;;;;;19.77;10.67;;;6.30;99.90;;;;;;5084852;28;20197;-77
2023/04/18 01:53:26;;;;;;;22.30;10.67;;;6.20;99.90;;;;;;5089070;28;20281;-78
2023/04/18 01:55:53;;;;;;;20.43;10.80;;;6.30;99.90;;;;;;5095625;28;20232;-77
2023/04/18 01:58:22;;;;;;;18.40;9.17;;;6.30;99.90;;;;;;5091838;28;20194;-78
2023/04/18 02:00:53;;;;;;;19.50;10.53;;;6.30;99.90;;;;;;5092083;28;20257;-78
2023/04/18 02:03:20;;;;;;;20.33;11.57;;;6.30;99.90;;;;;;5094035;28;20207;-78
2023/04/18 02:05:46;;;;;;;20.17;8.67;;;6.20;99.90;;;;;;5096450;28;20225;-77
2023/04/18 02:08:14;;;;;;;20.87;10.77;;;6.20;99.90;;;;;;5097905;28;20201;-78
2023/04/18 02:10:41;;;;;;;12.70;6.90;;;6.20;99.90;;;;;;5090954;28;20198;-78
2023/04/18 02:13:08;;;;;;;19.40;11.07;;;6.20;99.90;;;;;;5084082;28;20226;-76
2023/04/18 02:15:35;;;;;;;19.60;10.20;;;6.20;99.90;;;;;;5084413;28;20210;-76
2023/04/18 02:18:03;;;;;;;20.73;9.93;;;6.20;99.90;;;;;;5090220;28;20205;-78
2023/04/18 02:20:30;;;;;;;17.13;8.80;;;6.10;99.90;;;;;;5096861;28;20198;-78
2023/04/18 02:22:57;;;;;;;18.20;9.37;;;6.00;99.90;;;;;;5084332;28;20205;-77
2023/04/18 02:25:26;;;;;;;19.00;9.77;;;6.00;99.90;;;;;;5090440;28;20268;-79
2023/04/18 02:27:53;;;;;;;19.27;10.73;;;6.00;99.90;;;;;;5085396;28;20233;-79
2023/04/18 02:30:20;;;;;;;21.33;10.03;;;6.00;99.90;;;;;;5085525;28;20183;-77
2023/04/18 02:32:47;;;;;;;17.77;9.07;;;6.00;99.90;;;;;;5093927;28;20220;-78
2023/04/18 02:35:15;;;;;;;21.63;11.10;;;5.90;99.90;;;;;;5084934;28;20325;-78
2023/04/18 02:37:42;;;;;;;20.37;10.23;;;5.90;99.90;;;;;;5098900;28;20210;-77
2023/04/18 02:40:09;;;;;;;18.33;10.47;;;5.90;99.90;;;;;;5079163;28;20205;-77
2023/04/18 02:42:36;;;;;;;20.13;10.47;;;5.90;99.90;;;;;;5086541;28;20197;-77
2023/04/18 02:45:03;;;;;;;17.73;9.40;;;6.00;99.90;;;;;;5097303;28;20299;-76
2023/04/18 02:47:30;;;;;;;20.20;11.83;;;5.90;99.90;;;;;;5096535;28;20194;-77
2023/04/18 02:49:57;;;;;;;22.73;11.00;;;5.90;99.90;;;;;;5085440;28;20202;-77
2023/04/18 02:52:25;;;;;;;22.93;11.23;;;5.90;99.90;;;;;;5096008;28;20214;-77
2023/04/18 02:54:52;;;;;;;21.40;10.70;;;5.80;99.90;;;;;;5080414;28;20721;-78
2023/04/18 02:57:19;;;;;;;20.13;10.87;;;5.80;99.90;;;;;;5089094;28;20205;-77
2023/04/18 02:59:46;;;;;;;21.90;10.77;;;5.80;99.90;;;;;;5093399;28;20201;-76
2023/04/18 03:02:12;;;;;;;19.73;11.17;;;5.70;99.90;;;;;;5084126;28;20209;-77
2023/04/18 03:04:39;;;;;;;21.10;11.33;;;5.70;99.90;;;;;;5091247;28;20214;-78
2023/04/18 03:07:06;;;;;;;25.43;13.47;;;5.70;99.90;;;;;;5086997;28;20204;-76
2023/04/18 03:09:34;;;;;;;18.63;10.47;;;5.70;99.90;;;;;;5099847;28;20202;-77
2023/04/18 03:12:01;;;;;;;23.10;12.13;;;5.70;99.90;;;;;;5096686;28;20231;-77
2023/04/18 03:14:28;;;;;;;24.77;14.23;;;5.70;99.90;;;;;;5082548;28;20313;-79
2023/04/18 03:16:55;;;;;;;21.50;11.53;;;5.70;99.90;;;;;;5078055;28;20209;-76
2023/04/18 03:19:22;;;;;;;23.17;12.10;;;5.60;99.90;;;;;;5077696;28;20198;-78
2023/04/18 03:21:48;;;;;;;22.30;12.10;;;5.60;99.90;;;;;;5078897;28;20195;-78
2023/04/18 03:24:15;;;;;;;21.93;12.43;;;5.70;99.90;;;;;;5086224;28;20238;-78
2023/04/18 03:26:44;;;;;;;23.60;12.20;;;5.70;99.90;;;;;;5087012;28;20208;-79
2023/04/18 03:29:11;;;;;;;22.00;11.57;;;5.60;99.90;;;;;;5082436;28;20567;-77
2023/04/18 03:31:38;;;;;;;25.00;12.93;;;5.60;99.90;;;;;;5095782;28;20210;-78
2023/04/18 03:34:05;;;;;;;24.03;12.30;;;5.60;99.90;;;;;;5095418;28;20201;-77
2023/04/18 03:36:31;;;;;;;25.67;13.17;;;5.60;99.90;;;;;;5099602;28;20212;-76
2023/04/18 03:38:58;;;;;;;27.57;14.47;;;5.70;99.90;;;;;;5099176;28;20581;-77
2023/04/18 03:41:25;;;;;;;26.47;13.43;;;5.60;99.90;;;;;;5099501;28;20392;-78
2023/04/18 03:43:53;;;;;;;26.03;13.40;;;5.60;99.90;;;;;;5085061;28;20202;-76
2023/04/18 03:46:20;;;;;;;28.20;14.03;;;5.60;99.90;;;;;;5086092;28;20197;-78
2023/04/18 03:48:47;;;;;;;30.03;14.53;;;5.70;99.90;;;;;;5099441;28;20205;-79
2023/04/18 03:51:14;;;;;;;29.13;14.50;;;5.70;99.90;;;;;;5099865;28;20202;-77
2023/04/18 03:53:41;;;;;;;32.70;13.80;;;5.70;99.90;;;;;;5099892;28;20225;-78
2023/04/18 03:56:08;;;;;;;27.40;15.17;;;5.70;99.90;;;;;;5099562;28;20237;-77
2023/04/18 03:58:35;;;;;;;28.43;14.87;;;5.80;99.90;;;;;;5098530;28;20202;-77
2023/04/18 04:01:05;;;;;;;28.30;14.97;;;5.80;99.90;;;;;;5099347;28;20202;-78
2023/04/18 04:03:32;;;;;;;28.03;14.70;;;5.80;99.90;;;;;;5098710;28;20632;-78
2023/04/18 04:05:59;;;;;;;25.87;14.23;;;5.80;99.90;;;;;;5098840;28;20278;-77
2023/04/18 04:08:26;;;;;;;26.33;13.07;;;5.80;99.90;;;;;;5098053;28;20209;-76
2023/04/18 04:10:53;;;;;;;30.40;15.83;;;5.80;99.90;;;;;;5060814;28;1091323;-78
2023/04/18 04:13:20;;;;;;;27.53;15.63;;;5.80;99.90;;;;;;5100405;28;20221;-77
2023/04/18 04:15:46;;;;;;;26.20;14.23;;;5.90;99.90;;;;;;5100323;28;20227;-78
2023/04/18 04:18:14;;;;;;;24.47;13.63;;;5.90;99.90;;;;;;5098568;28;20314;-76
2023/04/18 04:20:41;;;;;;;28.23;17.33;;;5.90;99.90;;;;;;5099083;28;20205;-78
2023/04/18 04:23:08;;;;;;;27.93;14.63;;;5.90;99.90;;;;;;5099941;28;20229;-77
2023/04/18 04:25:37;;;;;;;27.07;14.37;;;5.90;99.90;;;;;;5099334;28;20271;-76
2023/04/18 04:28:05;;;;;;;26.60;13.47;;;5.90;99.90;;;;;;5099247;28;20201;-76
2023/04/18 04:30:32;;;;;;;27.97;14.63;;;6.00;99.90;;;;;;5099404;28;20211;-76
2023/04/18 04:33:00;;;;;;;28.57;15.23;;;6.00;99.90;;;;;;5100069;28;20237;-77
2023/04/18 04:35:28;;;;;;;23.13;12.40;;;6.00;99.90;;;;;;5098922;28;20253;-78
2023/04/18 04:37:55;;;;;;;24.47;13.43;;;6.00;99.90;;;;;;5097764;28;20209;-78
2023/04/18 04:40:22;;;;;;;29.47;14.07;;;6.00;99.90;;;;;;5097825;28;20205;-77
2023/04/18 04:42:52;;;;;;;26.07;14.10;;;6.00;99.90;;;;;;5096362;28;20198;-77
2023/04/18 04:45:19;;;;;;;26.63;14.57;;;6.00;99.90;;;;;;5098331;28;20228;-78
2023/04/18 04:47:46;;;;;;;23.63;11.60;;;6.00;99.90;;;;;;5098719;28;20227;-76
2023/04/18 04:50:14;;;;;;;24.33;12.93;;;6.00;99.90;;;;;;5098903;28;20205;-78
2023/04/18 04:52:42;;;;;;;26.57;14.67;;;6.00;99.90;;;;;;5098306;28;20217;-76
2023/04/18 04:55:09;;;;;;;27.53;14.07;;;6.00;99.90;;;;;;5098099;28;20222;-76
2023/04/18 04:57:37;;;;;;;23.83;13.23;;;6.10;99.90;;;;;;5097725;28;20201;-80
2023/04/18 05:00:06;;;;;;;26.27;15.10;;;6.10;99.90;;;;;;5099278;28;20201;-78
2023/04/18 05:02:33;;;;;;;24.40;13.27;;;6.10;99.90;;;;;;5099091;28;20236;-77
2023/04/18 05:05:00;;;;;;;24.10;13.67;;;6.10;99.90;;;;;;5098958;28;20217;-77
2023/04/18 05:07:27;;;;;;;24.07;12.83;;;6.10;99.90;;;;;;5101451;28;20553;-78
2023/04/18 05:09:55;;;;;;;24.73;13.77;;;6.10;99.90;;;;;;5100097;28;20562;-78
2023/04/18 05:12:22;;;;;;;22.07;11.23;;;6.10;99.90;;;;;;5100194;28;20221;-76
2023/04/18 05:14:48;;;;;;;23.67;12.47;;;6.10;99.90;;;;;;5099163;28;20732;-77
2023/04/18 05:17:15;;;;;;;22.33;11.80;;;6.00;99.90;;;;;;5098853;28;20206;-76
2023/04/18 05:19:42;;;;;;;20.57;10.77;;;6.10;99.90;;;;;;5098845;28;20193;-75
2023/04/18 05:22:09;;;;;;;25.97;12.80;;;6.10;99.90;;;;;;5097791;28;20679;-81
2023/04/18 05:24:36;;;;;;;24.97;14.23;;;6.10;99.90;;;;;;5098888;28;20591;-79
2023/04/18 05:27:04;;;;;;;22.63;12.33;;;6.20;99.90;;;;;;5094383;28;20198;-79
2023/04/18 05:29:31;;;;;;;24.77;13.13;;;6.10;99.90;;;;;;5098260;28;20197;-77
2023/04/18 05:31:58;;;;;;;20.57;11.30;;;6.10;99.90;;;;;;5087087;28;20199;-76
2023/04/18 05:34:25;;;;;;;22.47;11.00;;;6.10;99.90;;;;;;5088400;28;20223;-78
2023/04/18 05:36:52;;;;;;;23.43;13.67;;;6.10;99.90;;;;;;5079144;28;20207;-79
2023/04/18 05:39:19;;;;;;;22.70;12.50;;;6.10;99.90;;;;;;5085879;28;20252;-76
2023/04/18 05:41:45;;;;;;;21.30;10.13;;;6.10;99.90;;;;;;5079762;28;20214;-78
2023/04/18 05:44:14;;;;;;;23.73;12.33;;;6.10;99.90;;;;;;5098311;28;20647;-76
2023/04/18 05:46:41;;;;;;;22.70;12.17;;;6.10;99.90;;;;;;5094666;28;20408;-79
2023/04/18 05:49:08;;;;;;;19.23;10.20;;;6.20;99.90;;;;;;5078347;28;20202;-80
2023/04/18 05:51:35;;;;;;;22.87;11.83;;;6.20;99.90;;;;;;5077344;28;20680;-78
2023/04/18 05:54:01;;;;;;;25.30;12.10;;;6.20;99.90;;;;;;5077975;28;20248;-80
2023/04/18 05:56:29;;;;;;;24.93;12.30;;;6.20;99.90;;;;;;5075938;28;20299;-77
2023/04/18 05:58:56;;;;;;;23.30;12.07;;;6.20;99.90;;;;;;5076986;28;20208;-78
2023/04/18 06:01:24;;;;;;;23.50;12.77;;;6.20;99.90;;;;;;5086343;28;20721;-79
2023/04/18 06:03:50;;;;;;;27.37;13.70;;;6.20;99.90;;;;;;5096574;28;20205;-80
2023/04/18 06:06:17;;;;;;;20.33;10.47;;;6.30;99.90;;;;;;5098095;28;20744;-79
2023/04/18 06:08:44;;;;;;;24.70;12.63;;;6.20;99.90;;;;;;5097863;28;20206;-81
2023/04/18 06:11:11;;;;;;;24.73;14.30;;;6.30;99.90;;;;;;5095731;28;20209;-81
2023/04/18 06:13:37;;;;;;;21.83;10.10;;;6.20;99.90;;;;;;5090237;28;20226;-78
2023/04/18 06:16:06;;;;;;;21.30;11.50;;;6.30;99.90;;;;;;5088319;28;20228;-80
2023/04/18 06:18:34;;;;;;;27.17;11.90;;;6.30;99.90;;;;;;5093795;28;20573;-79
2023/04/18 06:21:01;;;;;;;21.63;11.20;;;6.30;99.90;;;;;;5081180;28;20257;-78
2023/04/18 06:23:28;;;;;;;21.47;11.90;;;6.30;99.90;;;;;;5095585;28;20197;-79
2023/04/18 06:25:54;;;;;;;22.60;11.30;;;6.40;99.90;;;;;;5075716;28;20241;-77
2023/04/18 06:28:21;;;;;;;23.70;12.97;;;6.40;99.90;;;;;;5078055;28;20234;-79
2023/04/18 06:30:48;;;;;;;20.80;10.97;;;6.40;99.90;;;;;;5078364;28;20198;-79
2023/04/18 06:33:15;;;;;;;20.53;10.73;;;6.40;99.90;;;;;;5077971;28;20222;-79
2023/04/18 06:35:43;;;;;;;22.33;11.07;;;6.50;99.90;;;;;;5076654;28;20222;-80
2023/04/18 06:38:11;;;;;;;21.13;13.23;;;6.50;99.90;;;;;;5076785;28;20210;-77
2023/04/18 06:40:37;;;;;;;24.80;12.13;;;6.50;99.90;;;;;;5074660;28;20245;-81
2023/04/18 06:43:04;;;;;;;19.93;11.00;;;6.60;99.90;;;;;;5076668;28;20758;-76
2023/04/18 06:45:33;;;;;;;24.27;11.20;;;6.60;99.90;;;;;;5074231;28;20228;-77
2023/04/18 06:48:03;;;;;;;22.13;11.73;;;6.60;99.90;;;;;;5076279;28;20658;-78
2023/04/18 06:50:30;;;;;;;23.53;12.67;;;6.60;99.90;;;;;;5077767;28;20210;-77
2023/04/18 06:52:58;;;;;;;16.33;8.60;;;6.70;99.90;;;;;;5079141;28;20221;-78
2023/04/18 06:55:25;;;;;;;21.93;10.77;;;6.60;99.90;;;;;;5091362;28;20222;-78
2023/04/18 06:57:52;;;;;;;19.67;10.47;;;6.70;99.90;;;;;;5082118;28;20210;-76
2023/04/18 07:00:19;;;;;;;19.07;9.47;;;6.70;99.90;;;;;;5077099;28;20205;-76
2023/04/18 07:02:46;;;;;;;21.40;10.40;;;6.80;99.90;;;;;;5076015;28;20289;-77
2023/04/18 07:05:14;;;;;;;18.93;9.40;;;6.80;99.90;;;;;;5077520;28;20226;-77
2023/04/18 07:07:40;;;;;;;17.70;9.67;;;6.90;99.90;;;;;;5079857;28;20206;-77
2023/04/18 07:10:10;;;;;;;17.77;9.23;;;6.90;99.90;;;;;;5080192;28;20210;-77
2023/04/18 07:12:37;;;;;;;20.03;10.83;;;7.00;99.90;;;;;;5080340;28;20199;-77
2023/04/18 07:15:04;;;;;;;21.50;10.87;;;7.00;99.90;;;;;;5080896;28;20226;-77
2023/04/18 07:17:31;;;;;;;19.13;8.67;;;7.20;99.90;;;;;;5081628;28;20288;-76
2023/04/18 07:19:58;;;;;;;18.53;9.63;;;7.30;99.90;;;;;;5078478;28;20209;-77
2023/04/18 07:22:25;;;;;;;19.97;11.20;;;7.30;99.90;;;;;;5080508;28;20207;-77
2023/04/18 07:24:52;;;;;;;19.37;11.03;;;7.40;99.90;;;;;;5077798;28;20234;-77
2023/04/18 07:27:20;;;;;;;18.30;9.87;;;7.40;99.90;;;;;;5080139;28;20210;-77
2023/04/18 07:29:47;;;;;;;21.37;10.53;;;7.60;99.90;;;;;;5080503;28;20213;-76
2023/04/18 07:32:13;;;;;;;23.47;12.57;;;7.60;99.90;;;;;;5080691;28;20194;-77
2023/04/18 07:34:40;;;;;;;21.67;11.00;;;7.70;99.90;;;;;;5080934;28;20226;-77
2023/04/18 07:37:07;;;;;;;19.13;10.57;;;7.80;99.90;;;;;;5099733;28;20196;-76
2023/04/18 07:39:35;;;;;;;21.90;11.50;;;7.80;99.90;;;;;;5100954;28;20205;-76
2023/04/18 07:42:02;;;;;;;16.97;8.57;;;8.00;99.90;;;;;;5086373;28;20210;-77
2023/04/18 07:44:30;;;;;;;23.90;12.63;;;7.80;99.90;;;;;;5079225;28;20224;-77
2023/04/18 07:46:57;;;;;;;20.00;10.97;;;8.10;99.90;;;;;;5084316;28;20205;-78
2023/04/18 07:49:24;;;;;;;20.63;11.17;;;7.80;99.90;;;;;;5099559;28;20202;-76
2023/04/18 07:51:51;;;;;;;21.97;12.80;;;8.00;99.90;;;;;;5100049;28;20208;-78
2023/04/18 07:54:17;;;;;;;19.43;10.60;;;8.10;99.90;;;;;;5097530;28;20225;-76
2023/04/18 07:56:44;;;;;;;20.80;12.57;;;8.00;99.90;;;;;;5099840;28;20273;-77
2023/04/18 07:59:11;;;;;;;19.20;10.67;;;8.10;99.90;;;;;;5099393;28;20205;-78
2023/04/18 08:01:39;;;;;;;21.93;11.20;;;8.30;99.90;;;;;;5100380;28;20636;-78
2023/04/18 08:04:06;;;;;;;22.83;11.73;;;8.00;99.90;;;;;;5100359;28;20204;-79
2023/04/18 08:06:33;;;;;;;19.97;10.57;;;8.20;99.90;;;;;;5099971;28;20205;-79
2023/04/18 08:09:03;;;;;;;23.20;12.67;;;8.10;99.90;;;;;;5099772;28;20624;-78
2023/04/18 08:11:30;;;;;;;22.80;11.97;;;8.20;99.90;;;;;;5099221;28;20213;-78
2023/04/18 08:13:56;;;;;;;19.30;10.57;;;8.20;99.90;;;;;;5099341;28;20221;-75
2023/04/18 08:16:23;;;;;;;21.00;12.20;;;8.10;99.90;;;;;;5099216;28;20543;-77
2023/04/18 08:18:51;;;;;;;19.73;11.30;;;8.30;99.90;;;;;;5090049;28;20206;-78
2023/04/18 08:21:19;;;;;;;17.57;10.67;;;8.40;99.90;;;;;;5078682;28;20202;-77
2023/04/18 08:23:45;;;;;;;22.13;12.47;;;8.40;99.90;;;;;;5087337;28;20196;-76
2023/04/18 08:26:12;;;;;;;21.50;11.07;;;8.40;99.90;;;;;;5097424;28;20228;-77
2023/04/18 08:28:39;;;;;;;21.53;12.63;;;8.60;99.90;;;;;;5099144;28;20215;-77
2023/04/18 08:31:06;;;;;;;20.57;11.73;;;8.70;99.90;;;;;;5099447;28;20620;-78
2023/04/18 08:33:33;;;;;;;22.23;12.27;;;8.60;99.90;;;;;;5098843;28;20221;-76
2023/04/18 08:36:02;;;;;;;21.43;11.80;;;8.70;99.90;;;;;;5098811;28;20597;-77
2023/04/18 08:38:28;;;;;;;20.83;11.10;;;8.80;99.90;;;;;;5098456;28;20672;-78
2023/04/18 08:40:55;;;;;;;20.03;11.33;;;8.60;99.90;;;;;;5098557;28;20206;-78
2023/04/18 08:43:24;;;;;;;22.30;12.07;;;8.70;99.90;;;;;;5086542;28;20198;-77
2023/04/18 08:45:51;;;;;;;19.80;11.17;;;8.60;99.90;;;;;;5099280;28;20287;-77
2023/04/18 08:48:18;;;;;;;20.03;11.70;;;8.50;99.90;;;;;;5083984;28;20624;-77
2023/04/18 08:50:46;;;;;;;21.77;11.80;;;8.70;99.90;;;;;;5078715;28;20572;-76
2023/04/18 08:53:17;;;;;;;17.70;10.43;;;9.00;99.90;;;;;;5077982;28;20241;-76
2023/04/18 08:55:46;;;;;;;20.07;11.97;;;8.70;99.90;;;;;;5077571;28;20222;-77
2023/04/18 08:58:22;;;;;;;20.73;12.30;;;8.90;99.90;;;;;;5097424;28;20269;-76
2023/04/18 09:00:50;;;;;;;21.30;11.67;;;8.90;99.90;;;;;;5097720;28;20204;-76
2023/04/18 09:03:21;;;;;;;20.53;10.63;;;9.00;99.90;;;;;;5097597;28;20566;-78
2023/04/18 09:06:07;;;;;;;20.03;10.83;;;9.00;99.90;;;;;;5097791;28;20249;-77
2023/04/18 09:08:35;;;;;;;19.80;11.03;;;9.10;99.90;;;;;;5078416;28;20670;-77
2023/04/18 09:11:24;;;;;;;18.77;10.87;;;9.40;99.90;;;;;;5087649;28;20217;-77
2023/04/18 09:13:52;;;;;;;18.30;10.93;;;9.50;99.90;;;;;;5094869;28;20214;-77
2023/04/18 09:16:21;;;;;;;16.87;8.97;;;9.60;99.90;;;;;;5092935;28;20229;-78
2023/04/18 09:19:17;;;;;;;18.07;9.73;;;9.50;99.90;;;;;;5078521;28;20293;-78
2023/04/18 09:21:47;;;;;;;18.37;10.17;;;9.50;99.90;;;;;;5042627;28;20615;-79
2023/04/18 09:24:21;;;;;;;16.73;8.63;;;9.60;99.90;;;;;;5078521;28;20655;-77
2023/04/18 09:26:49;;;;;;;16.47;9.27;;;9.50;99.90;;;;;;5089021;28;20253;-76
2023/04/18 09:29:17;;;;;;;15.27;9.00;;;9.70;99.90;;;;;;5081142;28;20206;-76
2023/04/18 09:31:58;;;;;;;19.37;10.50;;;9.50;99.90;;;;;;5085516;28;20202;-77
2023/04/18 09:34:26;;;;;;;17.43;9.50;;;9.60;99.90;;;;;;5090305;28;20225;-78
2023/04/18 09:37:06;;;;;;;18.73;10.07;;;9.70;99.90;;;;;;5083267;28;20213;-78
2023/04/18 09:39:35;;;;;;;14.17;7.97;;;10.00;99.90;;;;;;5082293;28;20194;-77
2023/04/18 09:42:01;;;;;;;16.13;8.80;;;10.00;99.90;;;;;;5077310;28;20210;-78
2023/04/18 09:44:29;;;;;;;15.23;8.70;;;10.10;99.90;;;;;;5089834;28;20267;-76
2023/04/18 09:46:56;;;;;;;13.77;7.10;;;10.30;99.90;;;;;;5086740;28;20202;-78
2023/04/18 09:49:23;;;;;;;16.37;9.20;;;10.40;99.90;;;;;;5079052;28;20205;-76
2023/04/18 09:51:53;;;;;;;15.50;8.10;;;10.50;99.90;;;;;;5092353;28;20212;-78
2023/04/18 09:54:22;;;;;;;14.70;8.03;;;10.30;99.90;;;;;;5096840;28;20256;-78
2023/04/18 09:56:54;;;;;;;14.87;9.00;;;10.20;99.90;;;;;;5096993;28;20201;-75
2023/04/18 09:59:34;;;;;;;14.50;8.27;;;10.60;99.90;;;;;;5095958;28;20278;-78
2023/04/18 10:02:02;;;;;;;15.60;8.37;;;10.60;99.90;;;;;;5096226;28;20235;-77
2023/04/18 10:04:30;;;;;;;13.67;7.03;;;10.50;99.90;;;;;;5096762;28;20313;-76
2023/04/18 10:06:57;;;;;;;12.60;7.77;;;10.30;99.90;;;;;;5095790;28;20198;-76
2023/04/18 10:09:24;;;;;;;14.47;7.10;;;10.20;99.90;;;;;;5095971;28;20208;-78
2023/04/18 10:11:53;;;;;;;14.63;7.43;;;10.10;99.90;;;;;;5095999;28;20205;-78
2023/04/18 10:14:22;;;;;;;11.23;6.97;;;9.90;99.90;;;;;;5095685;28;20711;-78
2023/04/18 10:16:49;;;;;;;13.30;7.00;;;10.00;99.90;;;;;;5096033;28;20205;-78
2023/04/18 10:19:23;;;;;;;12.87;7.40;;;10.10;99.90;;;;;;5097186;28;20577;-77
2023/04/18 10:21:54;;;;;;;12.30;7.10;;;10.10;99.90;;;;;;5096926;28;20608;-77
2023/04/18 10:24:45;;;;;;;12.67;7.27;;;10.30;99.90;;;;;;5097131;28;20213;-78
2023/04/18 10:27:14;;;;;;;14.67;8.70;;;10.10;99.90;;;;;;5091699;28;20205;-78
2023/04/18 10:29:48;;;;;;;15.77;10.00;;;10.20;99.90;;;;;;5096899;28;20205;-77
2023/04/18 10:32:16;;;;;;;15.10;8.93;;;9.90;99.90;;;;;;5096731;28;20569;-78
2023/04/18 10:34:43;;;;;;;15.30;9.33;;;9.90;99.90;;;;;;5095900;28;20233;-76
2023/04/18 10:37:11;;;;;;;16.13;8.97;;;9.90;99.90;;;;;;5096462;28;20247;-77
2023/04/18 10:39:56;;;;;;;14.70;8.23;;;10.00;99.90;;;;;;5095824;28;20202;-78
2023/04/18 10:42:56;;;;;;;16.57;8.37;;;10.10;99.90;;;;;;5100240;28;20205;-77
2023/04/18 10:45:27;;;;;;;14.53;8.13;;;9.90;99.90;;;;;;5099493;28;20218;-77
2023/04/18 10:48:23;;;;;;;13.47;7.80;;;10.00;99.90;;;;;;5100231;28;20202;-78
2023/04/18 10:51:13;;;;;;;12.07;7.27;;;9.80;99.90;;;;;;5102084;28;20186;-77
2023/04/18 10:53:46;;;;;;;14.30;8.20;;;9.80;99.90;;;;;;5099436;28;20202;-78
2023/04/18 10:56:14;;;;;;;16.80;9.97;;;9.90;99.90;;;;;;5100079;28;20221;-78
2023/04/18 10:58:43;;;;;;;15.00;9.47;;;9.90;99.90;;;;;;5098885;28;20581;-78
2023/04/18 11:01:14;;;;;;;13.43;8.70;;;9.90;99.90;;;;;;5100638;28;20237;-78
2023/04/18 11:03:41;;;;;;;13.83;7.83;;;9.90;99.90;;;;;;5100721;28;20271;-80
2023/04/18 11:06:07;;;;;;;17.07;10.80;;;9.70;99.90;;;;;;5101067;28;20221;-80
2023/04/18 11:08:34;;;;;;;15.03;9.77;;;9.80;99.90;;;;;;5100944;28;20197;-79
2023/04/18 11:11:02;;;;;;;14.77;9.03;;;9.80;99.90;;;;;;5101533;28;20209;-79
2023/04/18 11:13:30;;;;;;;17.20;10.00;;;9.80;99.90;;;;;;5101616;28;20563;-79
2023/04/18 11:15:57;;;;;;;20.17;10.93;;;9.90;99.90;;;;;;5102208;28;20228;-79
2023/04/18 11:18:25;;;;;;;15.33;9.73;;;9.80;99.90;;;;;;5101226;28;20201;-80
2023/04/18 11:20:53;;;;;;;18.30;11.20;;;9.90;99.90;;;;;;5102729;28;20208;-79
2023/04/18 11:23:23;;;;;;;16.77;9.57;;;9.80;99.90;;;;;;5103250;28;20658;-79
2023/04/18 11:25:53;;;;;;;15.50;10.10;;;9.80;99.90;;;;;;5102147;28;20224;-78
2023/04/18 11:28:23;;;;;;;18.63;11.60;;;9.90;99.90;;;;;;5087024;28;20665;-79
2023/04/18 11:30:50;;;;;;;14.60;8.30;;;10.00;99.90;;;;;;5102388;28;20646;-79
2023/04/18 11:33:17;;;;;;;15.40;9.23;;;10.00;99.90;;;;;;5098611;28;20575;-78
2023/04/18 11:35:45;;;;;;;12.70;8.27;;;9.90;99.90;;;;;;5095422;28;20217;-80
2023/04/18 11:38:14;;;;;;;14.83;8.67;;;9.90;99.90;;;;;;5101642;28;20684;-79
2023/04/18 11:40:47;;;;;;;15.17;9.17;;;10.10;99.90;;;;;;5100102;28;20229;-78
2023/04/18 11:43:20;;;;;;;12.87;8.10;;;10.30;99.90;;;;;;5099625;28;20204;-78
2023/04/18 11:45:55;;;;;;;13.93;7.57;;;10.40;99.90;;;;;;5100429;28;20218;-77
2023/04/18 11:48:22;;;;;;;17.27;11.30;;;10.20;99.90;;;;;;5087000;28;20203;-77
2023/04/18 11:50:50;;;;;;;16.80;9.23;;;10.10;99.90;;;;;;5084326;28;20257;-79
2023/04/18 11:53:32;;;;;;;10.47;6.70;;;10.20;99.90;;;;;;5089714;28;20230;-79
2023/04/18 11:55:59;;;;;;;13.80;7.67;;;10.20;99.90;;;;;;5088166;28;20249;-78
2023/04/18 11:58:31;;;;;;;12.50;8.47;;;10.20;99.90;;;;;;5093099;28;20247;-79
2023/04/18 12:00:58;;;;;;;13.20;7.00;;;10.30;99.90;;;;;;5093856;28;20202;-77
2023/04/18 12:03:26;;;;;;;16.07;9.47;;;10.20;99.90;;;;;;5085930;28;20205;-80
2023/04/18 12:06:00;;;;;;;19.27;10.87;;;10.30;99.90;;;;;;5092592;28;20228;-80
2023/04/18 12:08:26;;;;;;;13.10;8.40;;;10.30;99.90;;;;;;5092521;28;20202;-79
2023/04/18 12:10:54;;;;;;;14.03;8.37;;;10.30;99.90;;;;;;5091445;28;20221;-78
2023/04/18 12:13:25;;;;;;;12.43;9.40;;;10.40;99.90;;;;;;5088239;28;20205;-79
2023/04/18 12:15:52;;;;;;;14.67;9.30;;;10.50;99.90;;;;;;5096604;28;20418;-79
2023/04/18 12:18:20;;;;;;;11.53;6.67;;;10.40;99.90;;;;;;5094524;28;20217;-78
2023/04/18 12:20:50;;;;;;;10.40;6.23;;;10.40;99.90;;;;;;5087087;28;20198;-78
2023/04/18 12:23:33;;;;;;;13.47;8.03;;;10.30;99.90;;;;;;5097753;28;20280;-78
2023/04/18 12:26:01;;;;;;;11.53;7.13;;;10.60;99.90;;;;;;5094770;28;20253;-78
2023/04/18 12:28:28;;;;;;;10.33;6.57;;;10.50;99.90;;;;;;5077138;28;20666;-79
2023/04/18 12:30:55;;;;;;;12.20;7.70;;;10.60;99.90;;;;;;5093126;28;20607;-78
2023/04/18 12:33:22;;;;;;;12.87;7.27;;;10.60;99.90;;;;;;5095804;28;20201;-78
2023/04/18 12:35:48;;;;;;;10.80;7.30;;;10.60;99.90;;;;;;5085037;28;20222;-80
2023/04/18 12:38:15;;;;;;;14.03;8.80;;;10.50;99.90;;;;;;5090795;28;20190;-78
2023/04/18 12:40:44;;;;;;;13.27;7.23;;;10.80;99.90;;;;;;5088613;28;20658;-76
2023/04/18 12:43:11;;;;;;;10.97;6.60;;;10.50;99.90;;;;;;5085880;28;20203;-78